In Rescue
 
Open Full Screen Window  High Contrast Mode
Wind Gusting 00 knots
05
July 25, 2021 8:07 AM EDT
Weather Information
Wind Direction
  250 °
Wind Speed
  05 kt (6 mph)
Wind Gust
  00 kt (0 mph)
Altimeter
29.82 in
Visibility
10 SM
Temperature
19° C
66° F
Dewpoint
15° C
59° F
Humidity
78%
1hr Rain Fall
00.00 in.
24hr Rain Fall
00.12 in.
Sky Condition
Clear
VFR

METAR KMCD 251207Z AUTO 25005KT 10SM CLR 19/15 A2982 RMK AO2 T01910149

FAA Disclaimer: The data displayed is for advisory purposes only and is not to be used for flight planning or operations.